Ontario, CA

4:08 PM PDT on May 28, 2015 (GMT -0700)
Arrow/Etiwanda | | Change Station
CLOSE
Current Station
Personal Weather Station
Location: Rancho Cucamonga, CA
Elevation: 1152 ft
Nearby Weather Stations

Elev 1152 ft 34.10 °N, 117.53 °W | Updated 8 seconds ago

Partly Cloudy
Partly Cloudy
86.2 °F
Feels Like 83 °F
N
10.1
Wind Variable Wind from West
Gusts 10.1 mph

Today
High -- | Low -- °F
--% Chance of Precip.
Yesterday
High -- | Low -- °F
Precip. -- in
5:41 AM 7:54 PM
Waxing Gibbous, 79% visible
Pressure 29.87 in
Visibility 10.0 miles
Clouds Few 25000 ft
Heat Index 83 °F
Dew Point 35 °F
Humidity 16%
Rainfall 0.00 in
Snow Depth Not available.
UV 6 out of 12
Pollen 3.50 out of 12
Air Quality Not available.
Flu Activity Sporadic
METAR KONT 282253Z 24009KT 10SM FEW250 29/11 A2991 RMK AO2 SLP115 T02940111

More Conditions Fewer Conditions

Pressure 29.87 in
Visibility 10.0 miles
Clouds Few 25000 ft
Heat Index 83 °F
Dew Point 35 °F
Humidity 16%
Rainfall 0.00 in
Snow Depth Not available.
UV 6 out of 12
Pollen 3.50 out of 12
Air Quality Not available.
Flu Activity Sporadic
METAR KONT 282253Z 24009KT 10SM FEW250 29/11 A2991 RMK AO2 SLP115 T02940111

More Conditions Fewer Conditions

10-Day Weather Forecast

Almanac

Astronomy

May. 28, 2015 Rise Set
Actual Time
Civil Twilight
Nautical Twilight
Astronomical Twilight
Moon
Length of Visible Light
Length of Day
Tomorrow will be .
, % of the Moon is Illuminated

Today's Extremes

State Highs State Lows

Community

WunderPhotos

Upload Photos

1,825,089 photos uploaded!

WunderBlogs® & News

Nearby

Air Quality

  Air Quality AQ Index Pollutant
Not available.

Snow Depth

Station Depth Elevation

Earthquake Activity

City Distance Mag. Time & Date
Minimum magnitude displayed is 2.5.

Coastal Water Temperatures

Place Temperature

Stations

Nearby Weather Stations

Station Location Temp. Windchill Dew Point Humidity Wind Precip. Elev Updated Type